This is the latest recevied weather packets stored in our database for station/object OK2ZAW-21. If no packets are shown the sender has not sent any weather packets the latest 1 day(s).
| Time | Temp. | Humidity | Pressure | Rain* | Wind** | Luminosity | Snow |
|---|---|---|---|---|---|---|---|
| 1778056171 | 20° C | 56% | 1010.8 hPa | - | - | 438 W/m² | - |
| 1778056165 | 20° C | 56% | 1010.8 hPa | - | - | 438 W/m² | - |
| 1778056128 | 20.56° C | 55% | 1010.8 hPa | - | - | 438 W/m² | - |
| 1778055948 | 20.56° C | 57% | 1010.8 hPa | - | - | 438 W/m² | - |
| 1778055941 | 20.56° C | 57% | 1010.8 hPa | - | - | 438 W/m² | - |
| 1778055917 | 20.56° C | 56% | 1010.9 hPa | - | - | 438 W/m² | - |
| 1778055881 | 20.56° C | 58% | 1010.8 hPa | - | - | 438 W/m² | - |
| 1778055821 | 20.56° C | 57% | 1010.9 hPa | - | - | 438 W/m² | - |
| 1778055815 | 20.56° C | 57% | 1010.9 hPa | - | - | 438 W/m² | - |
| 1778055741 | 20° C | 60% | 1010.9 hPa | - | - | 438 W/m² | - |
| 1778055707 | 20° C | 61% | 1010.9 hPa | - | - | 438 W/m² | - |
| 1778055673 | 19.44° C | 65% | 1010.9 hPa | - | - | 438 W/m² | - |
| 1778055656 | 18.89° C | 66% | 1010.9 hPa | - | - | 438 W/m² | - |
| 1778055656 | 18.89° C | 67% | 1010.8 hPa | - | - | 438 W/m² | - |
| 1778055637 | 19.44° C | 65% | 1010.9 hPa | - | - | 438 W/m² | - |
| 1778055599 | 18.89° C | 67% | 1010.8 hPa | - | - | 438 W/m² | - |
| 1778055565 | 18.89° C | 66% | 1010.9 hPa | - | - | 438 W/m² | - |
| 1778055531 | 18.33° C | 66% | 1010.9 hPa | - | - | 438 W/m² | - |
| 1778055499 | 18.33° C | 65% | 1011 hPa | - | - | 438 W/m² | - |
| 1778055493 | 18.33° C | 65% | 1011 hPa | - | - | 438 W/m² | - |
| 1778055455 | 18.33° C | 66% | 1010.9 hPa | - | - | 438 W/m² | - |
| 1778055419 | 17.78° C | 65% | 1010.9 hPa | - | - | 438 W/m² | - |
| 1778055345 | 18.33° C | 62% | 1010.9 hPa | - | - | 438 W/m² | - |
| 1778055339 | 18.33° C | 62% | 1010.9 hPa | - | - | 438 W/m² | - |
| 1778055319 | 18.33° C | 61% | 1010.9 hPa | - | - | 438 W/m² | - |
* Rain since midnight (hover to see other rain measurements)
** Current wind speed in m/s (hover to see current wind gust speed)